createdAt,value
2019-06-08T00:00:02.507Z,1000.06
2019-06-08T00:01:02.510Z,1000.06
2019-06-08T00:02:02.513Z,1000.03
2019-06-08T00:03:02.500Z,1000.12
2019-06-08T00:04:02.498Z,1000.06
2019-06-08T00:05:02.506Z,1000.11
2019-06-08T00:06:02.496Z,1000.08
2019-06-08T00:07:02.496Z,1000.03
2019-06-08T00:08:02.495Z,1000.04
2019-06-08T00:09:02.496Z,1000.00
2019-06-08T00:10:02.494Z,1000.02
2019-06-08T00:11:02.496Z,1000.01
2019-06-08T00:12:02.491Z,1000.02
2019-06-08T00:13:02.490Z,1000.06
2019-06-08T00:14:02.488Z,1000.04
2019-06-08T00:15:02.487Z,1000.16
2019-06-08T00:16:02.487Z,1000.14
2019-06-08T00:17:02.487Z,1000.09
2019-06-08T00:18:02.486Z,1000.14
2019-06-08T00:19:02.483Z,1000.20
2019-06-08T00:20:02.486Z,1000.23
2019-06-08T00:21:02.483Z,1000.22
2019-06-08T00:22:02.480Z,1000.19
2019-06-08T00:23:02.479Z,1000.21
2019-06-08T00:24:02.480Z,1000.24
2019-06-08T00:25:02.612Z,1000.28
2019-06-08T00:26:02.476Z,1000.25
2019-06-08T00:27:02.475Z,1000.26
2019-06-08T00:28:02.487Z,1000.28
2019-06-08T00:29:02.475Z,1000.34
2019-06-08T00:30:02.676Z,1000.27
2019-06-08T00:31:02.472Z,1000.28
2019-06-08T00:32:02.471Z,1000.32
2019-06-08T00:33:02.477Z,1000.37
2019-06-08T00:34:02.469Z,1000.27
2019-06-08T00:35:02.472Z,1000.29
2019-06-08T00:36:02.501Z,1000.25
2019-06-08T00:37:02.465Z,1000.32
2019-06-08T00:38:02.463Z,1000.32
2019-06-08T00:39:02.463Z,1000.26
2019-06-08T00:40:02.463Z,1000.34
2019-06-08T00:41:02.462Z,1000.31
2019-06-08T00:42:02.462Z,1000.37
2019-06-08T00:43:02.458Z,1000.33
2019-06-08T00:44:02.457Z,1000.36
2019-06-08T00:45:02.458Z,1000.27
2019-06-08T00:46:02.459Z,1000.36
2019-06-08T00:47:02.453Z,1000.31
2019-06-08T00:48:02.460Z,1000.36
2019-06-08T00:49:02.454Z,1000.33
2019-06-08T00:50:02.451Z,1000.32
2019-06-08T00:51:02.453Z,1000.39
2019-06-08T00:52:02.449Z,1000.35
2019-06-08T00:53:02.448Z,1000.40
2019-06-08T00:54:02.445Z,1000.43
2019-06-08T00:55:02.445Z,1000.41
2019-06-08T00:56:02.446Z,1000.38
2019-06-08T00:57:02.443Z,1000.33
2019-06-08T00:58:02.443Z,1000.41
2019-06-08T00:59:02.441Z,1000.38
2019-06-08T01:00:10.389Z,1000.39
2019-06-08T01:01:02.441Z,1000.39
2019-06-08T01:02:02.439Z,1000.42
2019-06-08T01:03:02.438Z,1000.47
2019-06-08T01:04:02.450Z,1000.49
2019-06-08T01:05:02.437Z,1000.51
2019-06-08T01:06:02.431Z,1000.41
2019-06-08T01:07:02.431Z,1000.49
2019-06-08T01:08:02.503Z,1000.39
2019-06-08T01:09:02.429Z,1000.47
2019-06-08T01:10:02.428Z,1000.57
2019-06-08T01:11:02.434Z,1000.43
2019-06-08T01:12:02.426Z,1000.44
2019-06-08T01:13:02.424Z,1000.51
2019-06-08T01:14:02.422Z,1000.44
2019-06-08T01:15:02.716Z,1000.42
2019-06-08T01:16:02.419Z,1000.40
2019-06-08T01:17:02.419Z,1000.47
2019-06-08T01:18:04.203Z,1000.49
2019-06-08T01:19:02.416Z,1000.50
2019-06-08T01:20:02.416Z,1000.50
2019-06-08T01:21:02.416Z,1000.55
2019-06-08T01:22:02.423Z,1000.49
2019-06-08T01:23:02.410Z,1000.46
2019-06-08T01:24:02.412Z,1000.47
2019-06-08T01:25:02.410Z,1000.49
2019-06-08T01:26:02.407Z,1000.46
2019-06-08T01:27:02.407Z,1000.46
2019-06-08T01:28:02.405Z,1000.44
2019-06-08T01:29:02.438Z,1000.46
2019-06-08T01:30:02.405Z,1000.45
2019-06-08T01:31:02.407Z,1000.44
2019-06-08T01:32:02.400Z,1000.42
2019-06-08T01:33:02.402Z,1000.40
2019-06-08T01:34:02.398Z,1000.40
2019-06-08T01:35:02.399Z,1000.46
2019-06-08T01:36:02.402Z,1000.49
2019-06-08T01:37:02.401Z,1000.47
2019-06-08T01:38:02.395Z,1000.44
2019-06-08T01:39:02.394Z,1000.44
2019-06-08T01:40:02.399Z,1000.55
2019-06-08T01:41:02.395Z,1000.60
2019-06-08T01:42:02.392Z,1000.46
2019-06-08T01:43:02.397Z,1000.46
2019-06-08T01:44:02.395Z,1000.43
2019-06-08T01:45:02.554Z,1000.58
2019-06-08T01:46:02.394Z,1000.55
2019-06-08T01:47:02.385Z,1000.53
2019-06-08T01:48:16.005Z,1000.46
2019-06-08T01:49:02.385Z,1000.59
2019-06-08T01:50:02.382Z,1000.71
2019-06-08T01:51:02.383Z,1000.56
2019-06-08T01:52:02.381Z,1000.55
2019-06-08T01:53:02.380Z,1000.47
2019-06-08T01:54:02.379Z,1000.53
2019-06-08T01:55:02.378Z,1000.49
2019-06-08T01:56:02.377Z,1000.57
2019-06-08T01:57:02.377Z,1000.51
2019-06-08T01:58:02.379Z,1000.48
2019-06-08T01:59:02.376Z,1000.42
2019-06-08T02:00:28.741Z,1000.44
2019-06-08T02:01:02.374Z,1000.40
2019-06-08T02:02:02.375Z,1000.44
2019-06-08T02:03:02.373Z,1000.41
2019-06-08T02:04:02.376Z,1000.44
2019-06-08T02:05:02.370Z,1000.39
2019-06-08T02:06:02.388Z,1000.37
2019-06-08T02:07:02.368Z,1000.41
2019-06-08T02:08:02.367Z,1000.38
2019-06-08T02:09:02.364Z,1000.38
2019-06-08T02:10:02.369Z,1000.36
2019-06-08T02:11:02.410Z,1000.34
2019-06-08T02:12:02.364Z,1000.33
2019-06-08T02:13:02.361Z,1000.42
2019-06-08T02:14:02.361Z,1000.33
2019-06-08T02:15:02.358Z,1000.30
2019-06-08T02:16:02.358Z,1000.39
2019-06-08T02:17:02.358Z,1000.41
2019-06-08T02:18:02.357Z,1000.42
2019-06-08T02:19:02.357Z,1000.42
2019-06-08T02:20:02.359Z,1000.37
2019-06-08T02:21:02.354Z,1000.46
2019-06-08T02:22:02.356Z,1000.40
2019-06-08T02:23:02.352Z,1000.31
2019-06-08T02:24:02.362Z,1000.43
2019-06-08T02:25:02.356Z,1000.39
2019-06-08T02:26:02.350Z,1000.31
2019-06-08T02:27:02.357Z,1000.29
2019-06-08T02:28:02.380Z,1000.40
2019-06-08T02:29:02.349Z,1000.45
2019-06-08T02:30:02.353Z,1000.46
2019-06-08T02:31:02.345Z,1000.38
2019-06-08T02:32:02.345Z,1000.41
2019-06-08T02:33:02.357Z,1000.47
2019-06-08T02:34:02.346Z,1000.44
2019-06-08T02:35:02.342Z,1000.43
2019-06-08T02:36:02.341Z,1000.49
2019-06-08T02:37:02.341Z,1000.52
2019-06-08T02:38:02.344Z,1000.59
2019-06-08T02:39:02.341Z,1000.57
2019-06-08T02:40:02.353Z,1000.56
2019-06-08T02:41:02.338Z,1000.58
2019-06-08T02:42:02.335Z,1000.62
2019-06-08T02:43:02.333Z,1000.66
2019-06-08T02:44:02.336Z,1000.67
2019-06-08T02:45:02.344Z,1000.66
2019-06-08T02:46:02.332Z,1000.63
2019-06-08T02:47:02.332Z,1000.62
2019-06-08T02:48:02.330Z,1000.67
2019-06-08T02:49:04.608Z,1000.70
2019-06-08T02:50:02.328Z,1000.77
2019-06-08T02:51:02.326Z,1000.65
2019-06-08T02:52:02.326Z,1000.71
2019-06-08T02:53:02.325Z,1000.67
2019-06-08T02:54:02.329Z,1000.78
2019-06-08T02:55:02.332Z,1000.98
2019-06-08T02:56:02.334Z,1000.64
2019-06-08T02:57:02.341Z,1000.72
2019-06-08T02:58:02.321Z,1000.69
2019-06-08T02:59:02.321Z,1000.76
2019-06-08T03:00:02.326Z,1000.73
2019-06-08T03:01:02.321Z,1000.66
2019-06-08T03:02:02.316Z,1000.77
2019-06-08T03:03:02.330Z,1000.78
2019-06-08T03:04:02.319Z,1000.83
2019-06-08T03:05:02.315Z,1000.96
2019-06-08T03:06:02.323Z,1000.88
2019-06-08T03:07:02.315Z,1000.87
2019-06-08T03:08:02.310Z,1000.96
2019-06-08T03:09:02.312Z,1001.04
2019-06-08T03:10:02.311Z,1000.91
2019-06-08T03:11:02.309Z,1000.97
2019-06-08T03:12:02.309Z,1000.85
2019-06-08T03:13:02.306Z,1000.97
2019-06-08T03:14:02.306Z,1000.90
2019-06-08T03:15:02.305Z,1001.03
2019-06-08T03:16:02.310Z,1001.11
2019-06-08T03:17:02.305Z,1001.11
2019-06-08T03:18:02.302Z,1001.16
2019-06-08T03:19:19.999Z,1001.16
2019-06-08T03:20:02.301Z,1001.15
2019-06-08T03:21:02.298Z,1001.15
2019-06-08T03:22:02.301Z,1001.14
2019-06-08T03:23:02.298Z,1001.14
2019-06-08T03:24:02.299Z,1001.18
2019-06-08T03:25:02.303Z,1001.26
2019-06-08T03:26:02.293Z,1001.21
2019-06-08T03:27:02.292Z,1001.22
2019-06-08T03:28:02.301Z,1001.33
2019-06-08T03:29:02.301Z,1001.27
2019-06-08T03:30:15.248Z,1001.40
2019-06-08T03:31:02.289Z,1001.34
2019-06-08T03:32:02.289Z,1001.37
2019-06-08T03:33:02.287Z,1001.36
2019-06-08T03:34:02.285Z,1001.30
2019-06-08T03:35:02.299Z,1001.34
2019-06-08T03:36:02.286Z,1001.41
2019-06-08T03:37:02.288Z,1001.38
2019-06-08T03:38:02.280Z,1001.57
2019-06-08T03:39:02.279Z,1001.44
2019-06-08T03:40:02.288Z,1001.45
2019-06-08T03:41:02.277Z,1001.45
2019-06-08T03:42:02.274Z,1001.54
2019-06-08T03:43:02.274Z,1001.58
2019-06-08T03:44:02.274Z,1001.57
2019-06-08T03:45:02.274Z,1001.61
2019-06-08T03:46:02.274Z,1001.55
2019-06-08T03:47:02.297Z,1001.56
2019-06-08T03:48:02.274Z,1001.70
2019-06-08T03:49:02.271Z,1001.55
2019-06-08T03:50:02.275Z,1001.83
2019-06-08T03:51:02.267Z,1001.71
2019-06-08T03:52:02.267Z,1001.76
2019-06-08T03:53:02.265Z,1001.69
2019-06-08T03:54:02.262Z,1001.75
2019-06-08T03:55:02.262Z,1001.71
2019-06-08T03:56:02.271Z,1001.73
2019-06-08T03:57:02.270Z,1001.74
2019-06-08T03:58:02.281Z,1001.74
2019-06-08T03:59:02.258Z,1001.67
2019-06-08T04:00:02.269Z,1001.84
2019-06-08T04:01:02.262Z,1001.72
2019-06-08T04:02:02.263Z,1001.84
2019-06-08T04:03:02.253Z,1001.73
2019-06-08T04:04:02.252Z,1001.79
2019-06-08T04:05:02.253Z,1001.81
2019-06-08T04:06:02.250Z,1001.69
2019-06-08T04:07:02.250Z,1001.80
2019-06-08T04:08:02.247Z,1001.63
2019-06-08T04:09:02.247Z,1001.78
2019-06-08T04:10:02.244Z,1001.75
2019-06-08T04:11:02.243Z,1001.66
2019-06-08T04:12:02.247Z,1001.83
2019-06-08T04:13:02.244Z,1001.67
2019-06-08T04:14:02.249Z,1001.67
2019-06-08T04:15:02.242Z,1001.84
2019-06-08T04:16:02.236Z,1001.87
2019-06-08T04:17:02.241Z,1001.90
2019-06-08T04:18:02.235Z,1001.89
2019-06-08T04:19:02.233Z,1001.74
2019-06-08T04:20:10.455Z,1001.82
2019-06-08T04:21:02.232Z,1001.76
2019-06-08T04:22:02.231Z,1001.75
2019-06-08T04:23:02.231Z,1001.76
2019-06-08T04:24:02.227Z,1001.71
2019-06-08T04:25:02.227Z,1001.78
2019-06-08T04:26:02.225Z,1001.70
2019-06-08T04:27:02.224Z,1001.69
2019-06-08T04:28:02.231Z,1001.82
2019-06-08T04:29:02.222Z,1001.77
2019-06-08T04:30:02.219Z,1001.89
2019-06-08T04:31:02.220Z,1001.73
2019-06-08T04:32:02.220Z,1001.85
2019-06-08T04:33:02.216Z,1001.78
2019-06-08T04:34:02.220Z,1001.89
2019-06-08T04:35:02.222Z,1001.87
2019-06-08T04:36:02.218Z,1001.90
2019-06-08T04:37:02.215Z,1001.94
2019-06-08T04:38:02.226Z,1001.90
2019-06-08T04:39:02.210Z,1001.80
2019-06-08T04:40:02.208Z,1001.89
2019-06-08T04:41:02.207Z,1002.00
2019-06-08T04:42:02.204Z,1001.86
2019-06-08T04:43:02.205Z,1001.86
2019-06-08T04:44:02.202Z,1001.95
2019-06-08T04:45:02.202Z,1001.94
2019-06-08T04:46:02.212Z,1001.91
2019-06-08T04:47:02.200Z,1002.05
2019-06-08T04:48:02.197Z,1001.90
2019-06-08T04:49:02.200Z,1001.95
2019-06-08T04:50:20.960Z,1001.94
2019-06-08T04:51:02.192Z,1002.05
2019-06-08T04:52:02.195Z,1002.07
2019-06-08T04:53:02.192Z,1002.06
2019-06-08T04:54:02.190Z,1002.07
2019-06-08T04:55:02.197Z,1002.13
2019-06-08T04:56:02.186Z,1002.17
2019-06-08T04:57:02.192Z,1001.99
2019-06-08T04:58:02.185Z,1002.01
2019-06-08T04:59:02.186Z,1002.18
2019-06-08T05:00:11.345Z,1002.17
2019-06-08T05:01:02.182Z,1002.13
2019-06-08T05:02:02.185Z,1002.11
2019-06-08T05:03:02.179Z,1002.03
2019-06-08T05:04:02.179Z,1002.25
2019-06-08T05:05:02.177Z,1002.19
2019-06-08T05:06:02.177Z,1002.17
2019-06-08T05:07:02.175Z,1002.13
2019-06-08T05:08:02.171Z,1002.19
2019-06-08T05:09:02.179Z,1002.31
2019-06-08T05:10:02.169Z,1002.19
2019-06-08T05:11:02.166Z,1002.16
2019-06-08T05:12:02.170Z,1002.20
2019-06-08T05:13:02.170Z,1002.35
2019-06-08T05:14:02.162Z,1002.27
2019-06-08T05:15:02.185Z,1002.34
2019-06-08T05:16:02.161Z,1002.30
2019-06-08T05:17:02.159Z,1002.26
2019-06-08T05:18:02.162Z,1002.25
2019-06-08T05:19:02.157Z,1002.29
2019-06-08T05:20:02.157Z,1002.27
2019-06-08T05:21:02.165Z,1002.32
2019-06-08T05:22:02.169Z,1002.38
2019-06-08T05:23:02.155Z,1002.35
2019-06-08T05:24:02.160Z,1002.25
2019-06-08T05:25:02.150Z,1002.39
2019-06-08T05:26:02.147Z,1002.31
2019-06-08T05:27:02.147Z,1002.39
2019-06-08T05:28:02.145Z,1002.42
2019-06-08T05:29:02.152Z,1002.45
2019-06-08T05:30:08.494Z,1002.42
2019-06-08T05:31:02.140Z,1002.41
2019-06-08T05:32:02.140Z,1002.49
2019-06-08T05:33:02.144Z,1002.35
2019-06-08T05:34:02.136Z,1002.42
2019-06-08T05:35:02.140Z,1002.44
2019-06-08T05:36:02.135Z,1002.45
2019-06-08T05:37:02.142Z,1002.38
2019-06-08T05:38:02.133Z,1002.58
2019-06-08T05:39:02.160Z,1002.48
2019-06-08T05:40:02.131Z,1002.39
2019-06-08T05:41:02.129Z,1002.36
2019-06-08T05:42:02.127Z,1002.23
2019-06-08T05:43:02.125Z,1002.52
2019-06-08T05:44:02.127Z,1002.51
2019-06-08T05:45:02.124Z,1002.42
2019-06-08T05:46:02.123Z,1002.40
2019-06-08T05:47:02.121Z,1002.43
2019-06-08T05:48:02.142Z,1002.44
2019-06-08T05:49:02.119Z,1002.47
2019-06-08T05:50:02.117Z,1002.46
2019-06-08T05:51:04.157Z,1002.50
2019-06-08T05:52:02.116Z,1002.54
2019-06-08T05:53:02.115Z,1002.45
2019-06-08T05:54:03.080Z,1002.53
2019-06-08T05:55:02.124Z,1002.54
2019-06-08T05:56:02.114Z,1002.59
2019-06-08T05:57:02.110Z,1002.51
2019-06-08T05:58:02.107Z,1002.60
2019-06-08T05:59:02.109Z,1002.57
2019-06-08T06:00:08.447Z,1002.56
2019-06-08T06:01:02.108Z,1002.66
2019-06-08T06:02:02.103Z,1002.56
2019-06-08T06:03:02.107Z,1002.61
2019-06-08T06:04:02.101Z,1002.67
2019-06-08T06:05:02.099Z,1002.64
2019-06-08T06:06:02.099Z,1002.72
2019-06-08T06:07:02.096Z,1002.58
2019-06-08T06:08:02.127Z,1002.71
2019-06-08T06:09:02.095Z,1002.71
2019-06-08T06:10:02.113Z,1002.82
2019-06-08T06:11:02.091Z,1002.87
2019-06-08T06:12:02.094Z,1002.75
2019-06-08T06:13:02.093Z,1002.82
2019-06-08T06:14:02.088Z,1002.90
2019-06-08T06:15:02.089Z,1002.89
2019-06-08T06:16:02.098Z,1002.74
2019-06-08T06:17:02.085Z,1002.96
2019-06-08T06:18:02.084Z,1002.89
2019-06-08T06:19:02.088Z,1002.87
2019-06-08T06:20:02.086Z,1002.86
2019-06-08T06:21:10.817Z,1002.90
2019-06-08T06:22:02.080Z,1002.80
2019-06-08T06:23:02.077Z,1002.95
2019-06-08T06:24:02.075Z,1002.88
2019-06-08T06:25:02.094Z,1003.08
2019-06-08T06:26:02.072Z,1002.89
2019-06-08T06:27:02.070Z,1003.15
2019-06-08T06:28:04.039Z,1003.00
2019-06-08T06:29:02.143Z,1002.95
2019-06-08T06:30:02.213Z,1003.01
2019-06-08T06:31:02.069Z,1003.01
2019-06-08T06:32:02.065Z,1003.06
2019-06-08T06:33:02.064Z,1003.11
2019-06-08T06:34:02.067Z,1003.05
2019-06-08T06:35:02.062Z,1003.08
2019-06-08T06:36:02.073Z,1003.23
2019-06-08T06:37:02.058Z,1003.05
2019-06-08T06:38:02.061Z,1003.15
2019-06-08T06:39:02.055Z,1003.12
2019-06-08T06:40:02.056Z,1003.10
2019-06-08T06:41:02.064Z,1003.16
2019-06-08T06:42:02.052Z,1003.23
2019-06-08T06:43:02.050Z,1003.35
2019-06-08T06:44:02.070Z,1003.25
2019-06-08T06:45:02.049Z,1003.24
2019-06-08T06:46:02.047Z,1003.29
2019-06-08T06:47:02.047Z,1003.30
2019-06-08T06:48:02.046Z,1003.41
2019-06-08T06:49:02.042Z,1003.38
2019-06-08T06:50:02.087Z,1003.24
2019-06-08T06:51:02.071Z,1003.38
2019-06-08T06:52:02.038Z,1003.40
2019-06-08T06:53:02.040Z,1003.41
2019-06-08T06:54:03.296Z,1003.48
2019-06-08T06:55:02.034Z,1003.44
2019-06-08T06:56:02.054Z,1003.50
2019-06-08T06:57:02.099Z,1003.57
2019-06-08T06:58:02.036Z,1003.69
2019-06-08T06:59:02.032Z,1003.48
2019-06-08T07:00:02.031Z,1003.76
2019-06-08T07:01:02.074Z,1003.83
2019-06-08T07:02:02.025Z,1003.84
2019-06-08T07:03:02.026Z,1003.60
2019-06-08T07:04:02.023Z,1003.77
2019-06-08T07:05:02.115Z,1003.72
2019-06-08T07:06:02.022Z,1003.73
2019-06-08T07:07:02.035Z,1003.73
2019-06-08T07:08:02.017Z,1003.87
2019-06-08T07:09:02.014Z,1003.78
2019-06-08T07:10:02.013Z,1003.91
2019-06-08T07:11:02.014Z,1003.83
2019-06-08T07:12:02.010Z,1003.92
2019-06-08T07:13:02.062Z,1003.90
2019-06-08T07:14:02.007Z,1003.91
2019-06-08T07:15:02.005Z,1004.02
2019-06-08T07:16:17.244Z,1004.01
2019-06-08T07:17:02.004Z,1003.99
2019-06-08T07:18:02.006Z,1003.94
2019-06-08T07:19:02.040Z,1004.03
2019-06-08T07:20:02.004Z,1004.03
2019-06-08T07:21:01.999Z,1004.04
2019-06-08T07:22:01.999Z,1004.12
2019-06-08T07:23:01.996Z,1004.08
2019-06-08T07:24:01.994Z,1004.07
2019-06-08T07:25:02.000Z,1004.10
2019-06-08T07:26:01.991Z,1004.07
2019-06-08T07:27:01.990Z,1004.19
2019-06-08T07:28:01.991Z,1004.28
2019-06-08T07:29:01.988Z,1004.17
2019-06-08T07:30:02.040Z,1004.21
2019-06-08T07:31:01.983Z,1004.30
2019-06-08T07:32:01.984Z,1004.28
2019-06-08T07:33:01.982Z,1004.42
2019-06-08T07:34:01.979Z,1004.41
2019-06-08T07:35:01.981Z,1004.37
2019-06-08T07:36:01.977Z,1004.34
2019-06-08T07:37:01.977Z,1004.40
2019-06-08T07:38:02.035Z,1004.37
2019-06-08T07:39:01.976Z,1004.39
2019-06-08T07:40:01.984Z,1004.40
2019-06-08T07:41:01.987Z,1004.54
2019-06-08T07:42:01.971Z,1004.51
2019-06-08T07:43:01.968Z,1004.53
2019-06-08T07:44:01.966Z,1004.51
2019-06-08T07:45:01.971Z,1004.49
2019-06-08T07:46:01.963Z,1004.69
2019-06-08T07:47:01.965Z,1004.63
2019-06-08T07:48:01.963Z,1004.56
2019-06-08T07:49:01.962Z,1004.62
2019-06-08T07:50:04.666Z,1004.59
2019-06-08T07:51:02.005Z,1004.61
2019-06-08T07:52:09.493Z,1004.64
2019-06-08T07:53:01.955Z,1004.55
2019-06-08T07:54:01.955Z,1004.63
2019-06-08T07:55:01.978Z,1004.64
2019-06-08T07:56:01.953Z,1004.67
2019-06-08T07:57:01.950Z,1004.66
2019-06-08T07:58:01.948Z,1004.54
2019-06-08T07:59:01.945Z,1004.66
2019-06-08T08:00:08.801Z,1004.59
2019-06-08T08:01:07.651Z,1004.63
2019-06-08T08:02:01.941Z,1004.61
2019-06-08T08:03:01.943Z,1004.64
2019-06-08T08:04:01.940Z,1004.68
2019-06-08T08:05:01.938Z,1004.74
2019-06-08T08:06:01.935Z,1004.74
2019-06-08T08:07:01.934Z,1004.79
2019-06-08T08:08:01.946Z,1004.76
2019-06-08T08:09:01.936Z,1004.84
2019-06-08T08:10:01.969Z,1004.73
2019-06-08T08:11:01.931Z,1004.78
2019-06-08T08:12:01.932Z,1004.87
2019-06-08T08:13:01.927Z,1004.84
2019-06-08T08:14:01.925Z,1004.81
2019-06-08T08:15:01.924Z,1004.94
2019-06-08T08:16:01.924Z,1004.91
2019-06-08T08:17:01.922Z,1004.92
2019-06-08T08:18:01.923Z,1005.02
2019-06-08T08:19:01.918Z,1004.92
2019-06-08T08:20:01.923Z,1004.94
2019-06-08T08:21:09.157Z,1004.95
2019-06-08T08:22:18.673Z,1004.84
2019-06-08T08:23:05.810Z,1004.90
2019-06-08T08:24:01.943Z,1005.02
2019-06-08T08:25:04.691Z,1005.07
2019-06-08T08:26:02.032Z,1005.00
2019-06-08T08:27:03.704Z,1005.07
2019-06-08T08:28:01.909Z,1005.01
2019-06-08T08:29:03.192Z,1005.04
2019-06-08T08:30:02.242Z,1005.18
2019-06-08T08:31:02.009Z,1005.33
2019-06-08T08:32:02.113Z,1005.11
2019-06-08T08:33:03.193Z,1005.16
2019-06-08T08:34:05.685Z,1005.09
2019-06-08T08:35:02.962Z,1005.15
2019-06-08T08:36:02.124Z,1005.22
2019-06-08T08:37:05.923Z,1005.30
2019-06-08T08:38:04.454Z,1005.24
2019-06-08T08:39:02.617Z,1005.30
2019-06-08T08:40:01.902Z,1005.25
2019-06-08T08:41:07.306Z,1005.33
2019-06-08T08:42:04.520Z,1005.23
2019-06-08T08:43:01.909Z,1005.29
2019-06-08T08:44:04.269Z,1005.24
2019-06-08T08:45:05.074Z,1005.37
2019-06-08T08:46:02.069Z,1005.27
2019-06-08T08:47:02.873Z,1005.28
2019-06-08T08:48:20.661Z,1005.20
2019-06-08T08:49:09.396Z,1005.28
2019-06-08T08:50:02.145Z,1005.34
2019-06-08T08:51:03.709Z,1005.23
2019-06-08T08:52:01.971Z,1005.29
2019-06-08T08:53:02.439Z,1005.21
2019-06-08T08:54:04.886Z,1005.14
2019-06-08T08:55:02.202Z,1005.33
2019-06-08T08:56:02.496Z,1005.33
2019-06-08T08:57:04.974Z,1005.29
2019-06-08T08:58:02.205Z,1005.36
2019-06-08T08:59:02.874Z,1005.30
2019-06-08T09:00:05.031Z,1005.32
2019-06-08T09:01:03.634Z,1005.43
2019-06-08T09:02:02.993Z,1005.42
2019-06-08T09:04:04.811Z,1005.45
2019-06-08T09:05:03.476Z,1005.44
2019-06-08T09:06:03.826Z,1005.47
2019-06-08T09:07:05.612Z,1005.54
2019-06-08T09:08:02.633Z,1005.54
2019-06-08T09:09:03.264Z,1005.52
2019-06-08T09:10:03.617Z,1005.49
2019-06-08T09:11:03.574Z,1005.47
2019-06-08T09:12:04.336Z,1005.57
2019-06-08T09:13:04.215Z,1005.61
2019-06-08T09:14:05.211Z,1005.50
2019-06-08T09:15:03.534Z,1005.51
2019-06-08T09:16:03.997Z,1005.54
2019-06-08T09:17:03.391Z,1005.47
2019-06-08T09:18:03.685Z,1005.57
2019-06-08T09:19:04.250Z,1005.59
2019-06-08T09:20:03.652Z,1005.55
2019-06-08T09:21:02.866Z,1005.55
2019-06-08T09:22:03.861Z,1005.64
2019-06-08T09:23:12.034Z,1005.63
2019-06-08T09:24:03.848Z,1005.69
2019-06-08T09:25:04.316Z,1005.72
2019-06-08T09:26:09.030Z,1005.62
2019-06-08T09:27:04.037Z,1005.65
2019-06-08T09:28:04.463Z,1005.77
2019-06-08T09:29:06.721Z,1005.97
2019-06-08T09:30:04.415Z,1005.85
2019-06-08T09:31:02.763Z,1005.87
2019-06-08T09:32:03.156Z,1005.87
2019-06-08T09:33:02.912Z,1005.88
2019-06-08T09:34:09.166Z,1005.96
2019-06-08T09:35:04.396Z,1006.04
2019-06-08T09:36:04.733Z,1005.98
2019-06-08T09:37:03.489Z,1005.96
2019-06-08T09:38:04.763Z,1005.90
2019-06-08T09:39:03.659Z,1005.94
2019-06-08T09:40:02.583Z,1005.94
2019-06-08T09:41:04.804Z,1006.08
2019-06-08T09:42:03.495Z,1005.95
2019-06-08T09:43:07.433Z,1005.95
2019-06-08T09:44:04.469Z,1005.89
2019-06-08T09:45:04.253Z,1005.60
2019-06-08T09:46:04.197Z,1005.95
2019-06-08T09:47:07.354Z,1005.87
2019-06-08T09:48:04.348Z,1005.78
2019-06-08T09:49:07.660Z,1005.97
2019-06-08T09:50:03.665Z,1005.88
2019-06-08T09:51:04.114Z,1005.84
2019-06-08T09:52:03.295Z,1005.98
2019-06-08T09:53:17.979Z,1005.81
2019-06-08T09:54:05.720Z,1005.81
2019-06-08T09:55:03.727Z,1005.97
2019-06-08T09:56:05.330Z,1006.00
2019-06-08T09:57:03.890Z,1006.01
2019-06-08T09:58:05.192Z,1005.96
2019-06-08T09:59:04.642Z,1005.91
2019-06-08T10:00:08.375Z,1005.91
2019-06-08T10:01:03.815Z,1006.00
2019-06-08T10:02:07.445Z,1006.05
2019-06-08T10:03:04.317Z,1006.00
2019-06-08T10:04:02.832Z,1005.97
2019-06-08T10:05:04.005Z,1006.04
2019-06-08T10:06:06.884Z,1006.09
2019-06-08T10:07:02.656Z,1006.10
2019-06-08T10:08:02.852Z,1006.04
2019-06-08T10:09:02.788Z,1006.09
2019-06-08T10:10:03.100Z,1006.12
2019-06-08T10:11:04.379Z,1006.10
2019-06-08T10:12:04.446Z,1006.15
2019-06-08T10:13:04.802Z,1006.13
2019-06-08T10:14:04.955Z,1006.22
2019-06-08T10:15:02.853Z,1006.17
2019-06-08T10:16:03.627Z,1006.15
2019-06-08T10:17:03.596Z,1006.24
2019-06-08T10:18:03.186Z,1006.24
2019-06-08T10:19:03.872Z,1006.22
2019-06-08T10:20:03.387Z,1006.22
2019-06-08T10:21:03.444Z,1006.24
2019-06-08T10:22:02.933Z,1006.25
2019-06-08T10:23:05.095Z,1006.25
2019-06-08T10:24:04.526Z,1006.26
2019-06-08T10:25:04.471Z,1006.27
2019-06-08T10:26:03.504Z,1006.40
2019-06-08T10:27:03.442Z,1006.32
2019-06-08T10:28:10.122Z,1006.48
2019-06-08T10:29:04.120Z,1006.50
2019-06-08T10:30:04.325Z,1006.38
2019-06-08T10:31:03.352Z,1006.38
2019-06-08T10:32:01.836Z,1006.41
2019-06-08T10:33:03.485Z,1006.47
2019-06-08T10:34:03.433Z,1006.62
2019-06-08T10:35:03.619Z,1006.47
2019-06-08T10:36:03.644Z,1006.55
2019-06-08T10:37:04.903Z,1006.46
2019-06-08T10:38:05.176Z,1006.46
2019-06-08T10:39:03.750Z,1006.52
2019-06-08T10:40:03.757Z,1006.46
2019-06-08T10:41:08.612Z,1006.51
2019-06-08T10:42:03.593Z,1006.51
2019-06-08T10:43:03.400Z,1006.49
2019-06-08T10:44:03.339Z,1006.49
2019-06-08T10:45:05.210Z,1006.97
2019-06-08T10:46:08.413Z,1006.73
2019-06-08T10:47:03.395Z,1006.95
2019-06-08T10:48:03.243Z,1006.96
2019-06-08T10:49:01.949Z,1007.00
2019-06-08T10:50:06.456Z,1006.96
2019-06-08T10:51:03.826Z,1006.94
2019-06-08T10:52:03.615Z,1007.02
2019-06-08T10:53:04.075Z,1006.88
2019-06-08T10:54:02.198Z,1006.96
2019-06-08T10:55:04.865Z,1007.04
2019-06-08T10:56:03.007Z,1006.89
2019-06-08T10:57:03.917Z,1007.04
2019-06-08T10:58:02.381Z,1006.88
2019-06-08T10:59:04.744Z,1006.95
2019-06-08T11:00:12.364Z,1006.60
2019-06-08T11:01:03.978Z,1006.63
2019-06-08T11:02:05.128Z,1006.82
2019-06-08T11:03:03.353Z,1006.80
2019-06-08T11:04:03.194Z,1007.01
2019-06-08T11:05:04.554Z,1006.75
2019-06-08T11:06:03.278Z,1006.79
2019-06-08T11:07:06.969Z,1006.72
2019-06-08T11:08:02.924Z,1006.78
2019-06-08T11:09:05.435Z,1006.80
2019-06-08T11:10:02.419Z,1007.00
2019-06-08T11:11:02.769Z,1006.89
2019-06-08T11:12:03.178Z,1006.82
2019-06-08T11:13:05.108Z,1006.73
2019-06-08T11:14:03.610Z,1006.87
2019-06-08T11:15:03.175Z,1006.85
2019-06-08T11:16:02.839Z,1006.93
2019-06-08T11:17:02.814Z,1007.00
2019-06-08T11:18:04.750Z,1007.18
2019-06-08T11:19:03.004Z,1006.94
2019-06-08T11:20:03.081Z,1007.15
2019-06-08T11:21:02.410Z,1007.02
2019-06-08T11:22:05.824Z,1007.09
2019-06-08T11:23:02.452Z,1006.98
2019-06-08T11:24:13.306Z,1007.05
2019-06-08T11:25:02.495Z,1006.96
2019-06-08T11:26:04.561Z,1006.96
2019-06-08T11:27:03.402Z,1007.03
2019-06-08T11:28:03.407Z,1007.12
2019-06-08T11:29:02.927Z,1007.05
2019-06-08T11:30:09.455Z,1007.09
2019-06-08T11:31:01.931Z,1007.02
2019-06-08T11:32:02.073Z,1007.06
2019-06-08T11:33:02.092Z,1007.05
2019-06-08T11:34:02.683Z,1007.12
2019-06-08T11:35:02.104Z,1007.03
2019-06-08T11:36:05.787Z,1007.05
2019-06-08T11:37:03.237Z,1007.10
2019-06-08T11:38:02.244Z,1007.09
2019-06-08T11:39:02.512Z,1007.15
2019-06-08T11:40:02.155Z,1007.17
2019-06-08T11:41:04.326Z,1007.07
2019-06-08T11:42:02.313Z,1007.06
2019-06-08T11:43:02.266Z,1007.31
2019-06-08T11:44:03.444Z,1007.12
2019-06-08T11:45:02.281Z,1007.13
2019-06-08T11:46:02.577Z,1007.21
2019-06-08T11:47:02.521Z,1007.24
2019-06-08T11:48:02.781Z,1007.26
2019-06-08T11:49:05.011Z,1007.22
2019-06-08T11:50:02.894Z,1007.30
2019-06-08T11:51:02.560Z,1007.26
2019-06-08T11:52:02.553Z,1007.25
2019-06-08T11:53:03.655Z,1007.24
2019-06-08T11:54:02.903Z,1007.31
2019-06-08T11:55:03.745Z,1007.28
2019-06-08T11:56:02.741Z,1007.21
2019-06-08T11:57:02.845Z,1007.29
2019-06-08T11:58:02.898Z,1007.34
2019-06-08T11:59:03.051Z,1007.22
2019-06-08T12:00:09.215Z,1007.27
2019-06-08T12:01:03.481Z,1007.32
2019-06-08T12:02:01.997Z,1007.29
2019-06-08T12:03:02.232Z,1007.35
2019-06-08T12:04:01.999Z,1007.35
2019-06-08T12:05:02.007Z,1007.28
2019-06-08T12:06:02.264Z,1007.27